Time;durP1;ratioP1;P1;durP2;ratioP2;P2;SDS_P1;SDS_P2;PMS_P1;PMS_P2;Temp;Humidity;BMP_temperature;BMP_pressure;BME280_temperature;BME280_humidity;BME280_pressure;Samples;Min_cycle;Max_cycle;Signal;HPM_P1;HPM_P2
2022/08/06 00:01:02;;;;;;;8.95;5.08;;;;;;;21.36;73.29;100810.13;1691550;83;26456;-65
2022/08/06 00:03:27;;;;;;;10.40;5.30;;;;;;;21.34;73.23;100810.75;1705064;82;27927;-65
2022/08/06 00:05:53;;;;;;;5.67;5.10;;;;;;;21.36;73.53;100820.53;1698754;83;25711;-65
2022/08/06 00:08:19;;;;;;;9.93;5.60;;;;;;;21.27;73.63;100809.05;1709809;82;27313;-65
2022/08/06 00:10:46;;;;;;;8.30;5.40;;;;;;;21.23;73.80;100823.07;1701737;82;25751;-65
2022/08/06 00:13:12;;;;;;;9.35;5.28;;;;;;;21.18;74.06;100815.75;1682889;83;25948;-65
2022/08/06 00:15:37;;;;;;;8.58;4.58;;;;;;;21.18;74.02;100823.43;1685977;83;26570;-65
2022/08/06 00:18:04;;;;;;;7.75;4.60;;;;;;;21.17;73.97;100818.97;1695437;83;25900;-65
2022/08/06 00:20:29;;;;;;;8.55;5.92;;;;;;;21.16;73.88;100825.42;1709317;82;28169;-65
2022/08/06 00:23:00;;;;;;;10.03;4.80;;;;;;;21.11;74.52;100822.72;1697758;83;44091;-65
2022/08/06 00:25:26;;;;;;;7.08;5.03;;;;;;;20.97;74.27;100805.67;1733816;82;25794;-65
2022/08/06 00:27:52;;;;;;;12.58;5.80;;;;;;;21.03;74.65;100844.67;1706239;82;27866;-65
2022/08/06 00:30:18;;;;;;;8.95;4.50;;;;;;;20.99;74.77;100860.91;1717348;82;26447;-65
2022/08/06 00:32:44;;;;;;;7.22;4.92;;;;;;;20.87;76.05;100853.75;1718678;82;27575;-65
2022/08/06 00:35:10;;;;;;;8.90;4.95;;;;;;;20.67;75.79;100859.52;1721384;82;25903;-65
2022/08/06 00:37:36;;;;;;;5.50;4.28;;;;;;;20.63;75.92;100867.57;1708298;82;26554;-64
2022/08/06 00:40:04;;;;;;;5.00;4.17;;;;;;;20.57;75.81;100868.56;1724414;82;26515;-65
2022/08/06 00:42:29;;;;;;;9.20;4.72;;;;;;;20.53;75.64;100869.81;1717605;82;25808;-65
2022/08/06 00:44:55;;;;;;;12.25;4.33;;;;;;;20.48;75.56;100872.04;1720763;81;29503;-65
2022/08/06 00:47:21;;;;;;;5.83;3.75;;;;;;;20.33;75.82;100879.06;1732247;82;25757;-64
2022/08/06 00:49:47;;;;;;;6.62;2.98;;;;;;;20.26;75.86;100875.59;1704735;82;25723;-65
2022/08/06 00:52:13;;;;;;;5.15;3.33;;;;;;;20.22;75.81;100891.80;1732915;82;27871;-64
2022/08/06 00:54:38;;;;;;;5.53;3.20;;;;;;;20.12;75.64;100893.02;1687919;82;25890;-65
2022/08/06 00:57:05;;;;;;;5.83;2.70;;;;;;;20.04;75.47;100894.12;1698611;82;27383;-65
2022/08/06 00:59:30;;;;;;;6.80;2.55;;;;;;;19.95;75.11;100903.00;1724531;82;25877;-65
2022/08/06 01:01:56;;;;;;;4.70;2.10;;;;;;;19.84;74.91;100928.81;1708930;82;26386;-65
2022/08/06 01:04:22;;;;;;;3.62;2.00;;;;;;;19.69;74.70;100925.42;1723182;82;28000;-65
2022/08/06 01:06:48;;;;;;;1.62;1.52;;;;;;;19.58;74.41;100923.53;1705758;82;25794;-65
2022/08/06 01:09:14;;;;;;;3.58;2.27;;;;;;;19.49;74.09;100920.61;1705174;82;27523;-65
2022/08/06 01:11:40;;;;;;;2.10;1.57;;;;;;;19.41;73.86;100913.91;1698834;82;26536;-65
2022/08/06 01:14:07;;;;;;;4.45;2.00;;;;;;;19.30;73.64;100919.78;1720172;82;26612;-65
2022/08/06 01:16:59;;;;;;;3.77;1.80;;;;;;;19.23;73.46;100929.38;1682497;83;25864;-66
2022/08/06 01:19:48;;;;;;;4.70;1.70;;;;;;;19.16;73.42;100932.17;1703858;82;26049;-65
2022/08/06 01:22:52;;;;;;;3.55;1.55;;;;;;;19.06;73.27;100931.50;1718248;82;27495;-65
2022/08/06 01:25:54;;;;;;;6.20;2.40;;;;;;;19.04;73.29;100952.48;1658012;85;25395;-65
2022/08/06 01:28:28;;;;;;;;;;;;;;;19.00;73.19;100945.53;1683216;83;25834;-65
2022/08/06 01:31:05;;;;;;;2.33;1.60;;;;;;;19.00;73.11;100943.31;1704850;82;25763;-65
2022/08/06 01:33:37;;;;;;;2.17;1.60;;;;;;;18.99;73.19;100944.29;1717032;82;25864;-65
2022/08/06 01:36:08;;;;;;;3.55;1.60;;;;;;;18.97;73.15;100947.12;1691894;83;27890;-66
2022/08/06 01:38:37;;;;;;;;;;;;;;;18.91;73.08;100942.14;1709465;82;25782;-64
2022/08/06 01:41:08;;;;;;;3.77;1.60;;;;;;;18.83;72.76;100949.98;1697478;82;25809;-66
2022/08/06 01:43:37;;;;;;;2.52;1.50;;;;;;;18.83;72.74;100967.63;1719164;82;25702;-64
2022/08/06 01:46:04;;;;;;;2.60;1.32;;;;;;;18.85;72.47;100968.39;1706538;82;25790;-65
2022/08/06 01:48:32;;;;;;;1.45;1.35;;;;;;;18.83;72.31;100959.48;1700168;82;27449;-65
2022/08/06 01:51:02;;;;;;;4.67;1.80;;;;;;;18.80;72.09;100953.78;1722117;81;26534;-65
2022/08/06 01:53:38;;;;;;;6.50;1.50;;;;;;;18.77;71.92;100951.78;1715219;82;26484;-65
2022/08/06 01:56:07;;;;;;;3.42;1.50;;;;;;;18.74;71.69;100949.29;1712618;82;25854;-65
2022/08/06 01:58:41;;;;;;;6.87;2.05;;;;;;;18.73;71.63;100957.06;1700416;82;25844;-66
2022/08/06 02:01:11;;;;;;;3.08;1.35;;;;;;;18.69;71.46;100957.77;1721703;82;27389;-65
2022/08/06 02:03:46;;;;;;;2.37;1.32;;;;;;;18.69;71.32;100956.41;1704418;82;26118;-65
2022/08/06 02:06:23;;;;;;;6.70;1.70;;;;;;;18.67;71.17;100954.78;1691186;83;25768;-65
2022/08/06 02:08:51;;;;;;;4.20;1.52;;;;;;;18.62;71.10;100965.98;1700353;82;25809;-65
2022/08/06 02:11:17;;;;;;;5.08;1.22;;;;;;;18.61;70.99;100963.38;1697049;82;25779;-65
2022/08/06 02:13:46;;;;;;;3.25;1.45;;;;;;;18.62;70.89;100963.75;1695825;82;27468;-65
2022/08/06 02:16:13;;;;;;;8.00;2.67;;;;;;;18.61;70.75;100965.59;1698237;82;25889;-65
2022/08/06 02:18:44;;;;;;;2.10;1.22;;;;;;;18.54;70.73;100976.97;1722642;82;26314;-65
2022/08/06 02:21:17;;;;;;;3.60;1.75;;;;;;;18.48;70.74;100966.06;1705845;82;26361;-65
2022/08/06 02:23:44;;;;;;;3.72;1.80;;;;;;;18.46;70.70;100968.02;1697655;82;25957;-65
2022/08/06 02:26:11;;;;;;;19.92;10.13;;;;;;;18.40;70.73;100959.82;1693282;82;27531;-65
2022/08/06 02:28:39;;;;;;;4.33;1.62;;;;;;;18.39;70.79;100974.85;1724253;82;26660;-65
2022/08/06 02:31:06;;;;;;;5.40;1.60;;;;;;;18.40;70.83;100992.87;1706632;82;25969;-65
2022/08/06 02:33:32;;;;;;;4.53;1.20;;;;;;;18.34;70.79;100986.03;1725373;82;26308;-65
2022/08/06 02:36:12;;;;;;;3.12;1.27;;;;;;;18.31;70.80;100990.31;1705952;82;25861;-65
2022/08/06 02:38:46;;;;;;;3.52;1.80;;;;;;;18.29;70.83;100992.27;1725768;82;27468;-65
2022/08/06 02:41:41;;;;;;;2.90;1.60;;;;;;;18.28;70.82;100995.09;1685131;83;25794;-65
2022/08/06 02:44:25;;;;;;;3.08;1.40;;;;;;;18.26;70.86;100992.48;1682615;83;26574;-65
2022/08/06 02:46:56;;;;;;;5.08;2.05;;;;;;;18.22;70.83;100999.10;1694731;83;25811;-65
2022/08/06 02:49:26;;;;;;;5.25;2.15;;;;;;;18.19;70.81;100995.28;1714689;82;26429;-66
2022/08/06 02:52:06;;;;;;;4.62;1.67;;;;;;;18.15;70.87;100994.62;1708251;82;27405;-66
2022/08/06 02:54:39;;;;;;;4.08;1.62;;;;;;;18.13;71.22;101010.63;1681097;83;25749;-65
2022/08/06 02:57:10;;;;;;;1.72;1.37;;;;;;;17.99;71.08;101014.77;1708446;82;25987;-65
2022/08/06 02:59:42;;;;;;;1.47;1.12;;;;;;;17.90;71.34;101015.40;1699481;83;27904;-65
2022/08/06 03:02:10;;;;;;;5.35;1.42;;;;;;;17.77;71.68;101019.42;1727107;82;25757;-65
2022/08/06 03:04:40;;;;;;;4.03;1.75;;;;;;;17.66;71.65;101015.20;1684143;83;27383;-65
2022/08/06 03:07:08;;;;;;;5.33;1.72;;;;;;;17.58;71.62;101023.81;1682123;83;25796;-67
2022/08/06 03:09:36;;;;;;;5.40;2.02;;;;;;;17.49;71.63;101014.94;1680885;83;25734;-65
2022/08/06 03:12:04;;;;;;;6.17;2.10;;;;;;;17.45;71.92;101016.12;1696678;82;26236;-64
2022/08/06 03:14:32;;;;;;;3.33;2.27;;;;;;;17.38;71.86;101021.55;1697725;83;25798;-65
2022/08/06 03:16:59;;;;;;;6.33;2.08;;;;;;;17.33;72.00;101028.62;1715319;82;28307;-64
2022/08/06 03:19:27;;;;;;;4.67;2.67;;;;;;;17.30;71.88;101028.83;1689358;83;25860;-65
2022/08/06 03:21:55;;;;;;;4.08;2.22;;;;;;;17.28;71.93;101034.83;1710100;82;25769;-64
2022/08/06 03:24:22;;;;;;;6.60;2.77;;;;;;;17.28;71.83;101051.58;1706689;83;25811;-64
2022/08/06 03:26:50;;;;;;;7.47;2.60;;;;;;;17.27;71.85;101057.95;1695686;83;25735;-65
2022/08/06 03:29:17;;;;;;;5.03;2.60;;;;;;;17.25;71.81;101081.09;1689641;83;27383;-64
2022/08/06 03:31:43;;;;;;;4.37;2.60;;;;;;;17.25;71.85;101078.38;1698225;83;25886;-65
2022/08/06 03:34:10;;;;;;;5.58;2.55;;;;;;;17.21;71.96;101064.64;1712704;82;25839;-66
2022/08/06 03:36:38;;;;;;;5.65;2.95;;;;;;;17.16;71.93;101076.26;1683007;83;26313;-67
2022/08/06 03:39:07;;;;;;;7.50;2.72;;;;;;;17.12;72.09;101085.55;1661780;83;25967;-66
2022/08/06 03:41:36;;;;;;;8.95;3.10;;;;;;;17.07;72.26;101089.91;1716107;82;27999;-66
2022/08/06 03:44:03;;;;;;;4.22;2.27;;;;;;;17.06;72.16;101097.64;1683710;83;25826;-67
2022/08/06 03:46:58;;;;;;;8.75;3.10;;;;;;;17.09;72.25;101102.86;1678526;83;25866;-64
2022/08/06 03:49:41;;;;;;;3.47;2.70;;;;;;;17.04;72.18;101107.70;1676042;83;26542;-65
2022/08/06 03:52:11;;;;;;;6.10;2.75;;;;;;;17.04;72.10;101110.41;1710052;82;25738;-66
2022/08/06 03:54:42;;;;;;;6.92;3.15;;;;;;;17.05;72.07;101119.41;1697270;83;27402;-66
2022/08/06 03:57:16;;;;;;;6.03;3.58;;;;;;;17.02;72.12;101112.34;1711814;82;26115;-66
2022/08/06 03:59:45;;;;;;;4.55;2.85;;;;;;;17.00;72.20;101122.40;1714668;82;26535;-64
2022/08/06 04:02:14;;;;;;;5.33;3.25;;;;;;;16.97;72.12;101121.23;1704093;82;25778;-66
2022/08/06 04:04:42;;;;;;;6.00;3.20;;;;;;;16.99;72.26;101122.50;1703518;83;25942;-66
2022/08/06 04:07:09;;;;;;;4.92;2.98;;;;;;;16.97;72.06;101128.01;1718619;81;27383;-66
2022/08/06 04:09:35;;;;;;;5.33;3.22;;;;;;;16.98;72.15;101137.00;1727328;82;25715;-66
2022/08/06 04:12:04;;;;;;;6.85;2.87;;;;;;;17.01;72.06;101153.93;1690954;83;25798;-66
2022/08/06 04:14:30;;;;;;;5.83;3.05;;;;;;;16.98;72.16;101160.89;1685783;83;26448;-66
2022/08/06 04:16:58;;;;;;;4.03;2.60;;;;;;;16.93;72.08;101159.44;1714213;82;25927;-66
2022/08/06 04:19:25;;;;;;;6.10;2.60;;;;;;;16.93;72.15;101168.42;1707197;82;27472;-66
2022/08/06 04:21:51;;;;;;;4.40;2.15;;;;;;;16.93;71.99;101167.07;1712003;82;25747;-66
2022/08/06 04:24:16;;;;;;;3.72;2.15;;;;;;;16.94;72.06;101173.36;1704391;82;25791;-66
2022/08/06 04:26:47;;;;;;;3.77;2.02;;;;;;;16.92;71.88;101173.45;1723190;82;25866;-66
2022/08/06 04:29:17;;;;;;;5.17;2.65;;;;;;;16.90;71.84;101169.09;1684573;83;25739;-66
2022/08/06 04:31:46;;;;;;;3.72;2.27;;;;;;;16.87;71.84;101164.74;1665489;84;27568;-66
2022/08/06 04:34:23;;;;;;;5.28;2.12;;;;;;;16.83;71.86;101167.25;1683599;83;25889;-64
2022/08/06 04:36:50;;;;;;;3.65;1.90;;;;;;;16.84;71.74;101173.05;1680408;83;25777;-64
2022/08/06 04:39:18;;;;;;;2.58;1.87;;;;;;;16.84;71.70;101167.16;1700560;82;26435;-66
2022/08/06 04:41:44;;;;;;;4.70;1.62;;;;;;;16.87;71.67;101189.11;1695322;83;25677;-65
2022/08/06 04:44:11;;;;;;;11.63;2.83;;;;;;;16.82;71.62;101194.80;1709227;82;29543;-65
2022/08/06 04:46:38;;;;;;;4.47;1.60;;;;;;;16.79;71.62;101201.76;1703042;82;26960;-66
2022/08/06 04:49:04;;;;;;;5.25;1.80;;;;;;;16.80;71.63;101202.63;1682313;83;25911;-66
2022/08/06 04:51:30;;;;;;;3.12;1.62;;;;;;;16.75;71.54;101209.67;1704346;82;25833;-65
2022/08/06 04:53:57;;;;;;;4.17;1.50;;;;;;;16.73;71.54;101220.20;1696202;83;25965;-66
2022/08/06 04:56:22;;;;;;;3.77;1.30;;;;;;;16.75;71.53;101212.86;1712901;82;27473;-66
2022/08/06 04:58:49;;;;;;;3.77;1.17;;;;;;;16.75;71.46;101203.39;1682195;83;25851;-66
2022/08/06 05:01:14;;;;;;;7.30;1.72;;;;;;;16.77;71.38;101209.10;1700024;82;26200;-65
2022/08/06 05:03:40;;;;;;;2.00;1.35;;;;;;;16.77;71.31;101206.87;1682148;83;25881;-66
2022/08/06 05:06:32;;;;;;;8.10;2.52;;;;;;;16.77;71.24;101219.06;1705981;82;25759;-66
2022/08/06 05:09:06;;;;;;;2.72;2.05;;;;;;;16.74;71.29;101235.48;1660780;84;27484;-66
2022/08/06 05:11:40;;;;;;;5.60;2.42;;;;;;;16.71;71.27;101216.72;1656516;84;25774;-65
2022/08/06 05:14:11;;;;;;;5.67;3.17;;;;;;;16.71;71.21;101225.71;1678009;83;25823;-65
2022/08/06 05:16:40;;;;;;;7.17;2.70;;;;;;;16.72;71.21;101231.52;1710496;82;25892;-65
2022/08/06 05:19:10;;;;;;;6.92;3.30;;;;;;;16.78;71.24;101220.32;1703831;82;25721;-65
2022/08/06 05:21:39;;;;;;;8.50;3.67;;;;;;;16.83;71.20;101218.20;1712324;82;27485;-64
2022/08/06 05:24:06;;;;;;;6.90;3.65;;;;;;;16.86;71.24;101222.09;1707437;82;25947;-64
2022/08/06 05:26:34;;;;;;;7.40;3.65;;;;;;;16.84;71.25;101221.30;1689349;83;25809;-64
2022/08/06 05:29:00;;;;;;;12.25;5.20;;;;;;;16.83;71.26;101221.40;1703551;82;25759;-64
2022/08/06 05:31:35;;;;;;;11.35;6.10;;;;;;;16.85;71.29;101220.83;1695076;83;25348;-66
2022/08/06 05:34:03;;;;;;;10.23;5.50;;;;;;;16.81;71.28;101233.67;1712928;82;27601;-65
2022/08/06 05:36:29;;;;;;;10.58;6.60;;;;;;;16.84;71.26;101233.97;1697334;82;26395;-65
2022/08/06 05:38:55;;;;;;;12.15;7.20;;;;;;;16.82;71.29;101238.61;1711812;82;25794;-65
2022/08/06 05:41:22;;;;;;;15.50;8.73;;;;;;;16.80;71.32;101240.53;1695669;82;27830;-65
2022/08/06 05:43:48;;;;;;;16.12;8.48;;;;;;;16.75;71.31;101243.52;1712560;82;25781;-65
2022/08/06 05:46:21;;;;;;;12.65;8.03;;;;;;;16.75;71.41;101248.06;1719305;82;27454;-65
2022/08/06 05:48:54;;;;;;;16.70;7.85;;;;;;;16.75;71.48;101260.23;1743720;81;25876;-65
2022/08/06 05:51:46;;;;;;;13.38;7.55;;;;;;;16.70;71.49;101260.98;1735162;82;25661;-66
2022/08/06 05:54:46;;;;;;;17.98;7.97;;;;;;;16.67;71.48;101258.47;1744276;82;25783;-65
2022/08/06 05:57:17;;;;;;;13.85;7.85;;;;;;;16.67;71.57;101266.59;1734848;82;25699;-65
2022/08/06 05:59:52;;;;;;;11.57;7.70;;;;;;;16.62;71.66;101266.83;1743968;81;27369;-67
2022/08/06 06:02:19;;;;;;;14.40;7.92;;;;;;;16.61;71.65;101278.61;1733493;82;25704;-66
2022/08/06 06:04:46;;;;;;;14.28;7.97;;;;;;;16.63;71.65;101290.70;1745533;81;25490;-65
2022/08/06 06:07:14;;;;;;;10.00;7.28;;;;;;;16.59;71.79;101267.48;1736417;82;26229;-65
2022/08/06 06:09:42;;;;;;;14.13;7.55;;;;;;;16.54;71.99;101278.09;1743669;82;25628;-65
2022/08/06 06:12:10;;;;;;;14.45;7.22;;;;;;;16.56;71.89;101277.52;1735279;82;28088;-65
2022/08/06 06:14:42;;;;;;;14.85;7.97;;;;;;;16.61;71.95;101286.73;1743826;82;25969;-65
2022/08/06 06:17:34;;;;;;;13.40;6.72;;;;;;;16.65;71.79;101283.40;1734830;82;25643;-65
2022/08/06 06:20:31;;;;;;;12.20;6.10;;;;;;;16.66;71.81;101283.79;1731962;82;26832;-65
2022/08/06 06:23:31;;;;;;;13.85;6.42;;;;;;;16.72;71.80;101299.67;1708782;82;25845;-65
2022/08/06 06:26:21;;;;;;;9.23;4.92;;;;;;;16.83;71.77;101295.86;1695756;83;27508;-65
2022/08/06 06:29:25;;;;;;;10.43;5.08;;;;;;;16.86;71.66;101307.86;1679004;83;25754;-65
2022/08/06 06:32:08;;;;;;;8.35;3.90;;;;;;;16.93;71.61;101302.95;1680210;83;25826;-65
2022/08/06 06:34:55;;;;;;;9.43;4.92;;;;;;;16.88;71.52;101312.22;1711963;82;26447;-67
2022/08/06 06:37:38;;;;;;;11.73;4.78;;;;;;;16.89;71.45;101319.86;1698357;82;25784;-66
2022/08/06 06:40:36;;;;;;;6.60;3.17;;;;;;;16.89;71.39;101315.80;1708593;82;27406;-66
2022/08/06 06:43:11;;;;;;;10.25;4.20;;;;;;;16.88;71.31;101316.77;1698872;82;25598;-66
2022/08/06 06:45:43;;;;;;;12.93;4.30;;;;;;;16.92;71.37;101314.75;1696393;83;25557;-65
2022/08/06 06:48:17;;;;;;;4.90;3.35;;;;;;;16.98;71.27;101306.27;1692372;83;26253;-66
2022/08/06 06:50:48;;;;;;;5.00;3.27;;;;;;;17.05;71.20;101315.28;1696628;83;25359;-66
2022/08/06 06:53:14;;;;;;;;;;;;;;;17.12;71.06;101316.66;1703093;83;27415;-67
2022/08/06 06:55:45;;;;;;;3.77;3.15;;;;;;;17.19;71.06;101326.65;1696093;83;25991;-66
2022/08/06 06:58:22;;;;;;;10.93;3.00;;;;;;;17.19;70.92;101325.30;1692134;83;32444;-68
2022/08/06 07:00:50;;;;;;;6.72;3.15;;;;;;;17.25;70.85;101330.83;1692561;83;25881;-67
2022/08/06 07:03:19;;;;;;;8.33;3.50;;;;;;;17.34;70.74;101331.14;1714425;82;25852;-67
2022/08/06 07:05:48;;;;;;;7.60;3.20;;;;;;;17.32;70.63;101338.49;1701853;82;27362;-66
2022/08/06 07:08:18;;;;;;;12.68;3.92;;;;;;;17.35;70.51;101339.66;1711447;82;25822;-66
2022/08/06 07:10:45;;;;;;;6.25;2.72;;;;;;;17.41;70.37;101334.35;1683005;83;25784;-66
2022/08/06 07:13:12;;;;;;;7.00;3.02;;;;;;;17.47;70.44;101334.85;1704494;82;25864;-65
2022/08/06 07:15:40;;;;;;;4.95;2.67;;;;;;;17.59;70.27;101335.06;1712458;82;26435;-67
2022/08/06 07:18:08;;;;;;;4.72;2.45;;;;;;;17.65;70.15;101339.63;1704926;82;27442;-66
2022/08/06 07:20:34;;;;;;;7.75;3.92;;;;;;;17.74;69.98;101339.09;1681568;83;26710;-66
2022/08/06 07:23:08;;;;;;;5.67;2.75;;;;;;;17.75;69.66;101338.61;1704368;82;25724;-68
2022/08/06 07:25:42;;;;;;;7.65;2.70;;;;;;;17.78;69.55;101347.91;1697470;83;25801;-63
2022/08/06 07:28:11;;;;;;;4.60;2.58;;;;;;;17.80;69.40;101346.84;1713533;82;26384;-66
2022/08/06 07:30:40;;;;;;;5.05;2.80;;;;;;;17.89;69.03;101347.23;1702198;82;28622;-65
2022/08/06 07:33:09;;;;;;;5.87;2.60;;;;;;;17.88;68.74;101345.02;1669906;83;25899;-66
2022/08/06 07:35:40;;;;;;;5.60;2.98;;;;;;;17.94;68.72;101350.53;1673488;84;25690;-66
2022/08/06 07:38:09;;;;;;;8.98;3.08;;;;;;;18.03;68.49;101354.02;1674814;84;25983;-65
2022/08/06 07:40:46;;;;;;;12.68;3.10;;;;;;;18.01;68.04;101353.25;1673981;84;25791;-65
2022/08/06 07:43:16;;;;;;;7.50;3.55;;;;;;;18.08;68.14;101359.55;1672549;84;27588;-65
2022/08/06 07:45:43;;;;;;;7.67;3.20;;;;;;;18.23;67.99;101357.66;1667470;84;30388;-66
2022/08/06 07:48:12;;;;;;;9.38;4.37;;;;;;;18.36;67.89;101371.33;1677080;84;25965;-66
2022/08/06 07:50:42;;;;;;;6.03;4.45;;;;;;;18.24;66.97;101369.39;1675595;83;25731;-71
2022/08/06 07:53:10;;;;;;;4.53;3.22;;;;;;;18.18;67.03;101377.95;1676518;84;25757;-70
2022/08/06 07:55:38;;;;;;;7.35;4.80;;;;;;;18.15;66.39;101381.25;1673728;84;27376;-70
2022/08/06 07:58:06;;;;;;;11.38;5.42;;;;;;;18.08;66.66;101388.03;1668060;84;25822;-70
2022/08/06 08:00:32;;;;;;;13.40;6.83;;;;;;;18.14;66.66;101382.70;1670988;84;26217;-70
2022/08/06 08:08:30;;;;;;;14.40;7.87;;;;;;;18.32;66.23;101399.63;1692413;84;27393;-70
2022/08/06 08:10:57;;;;;;;15.63;8.20;;;;;;;18.37;65.94;101395.66;1684361;84;26404;-70
2022/08/06 08:13:24;;;;;;;17.77;7.78;;;;;;;18.42;65.83;101394.00;1673567;84;25811;-71
2022/08/06 08:15:51;;;;;;;13.28;7.75;;;;;;;18.47;65.70;101403.59;1684975;83;26510;-70
2022/08/06 08:18:18;;;;;;;20.55;6.35;;;;;;;18.57;65.52;101405.72;1681330;84;26556;-71
2022/08/06 08:20:46;;;;;;;16.90;7.35;;;;;;;18.57;65.30;101405.23;1677220;83;29554;-71
2022/08/06 08:23:14;;;;;;;11.73;6.92;;;;;;;18.71;65.43;101401.17;1676979;84;25898;-69
2022/08/06 08:25:40;;;;;;;11.25;6.45;;;;;;;18.85;65.25;101398.03;1686855;84;25790;-70
2022/08/06 08:28:09;;;;;;;15.58;6.12;;;;;;;18.86;64.96;101407.92;1682532;84;25816;-72
2022/08/06 08:30:39;;;;;;;14.70;6.45;;;;;;;18.95;64.83;101414.98;1680753;84;25807;-72
2022/08/06 08:33:05;;;;;;;11.50;5.87;;;;;;;19.03;64.76;101417.20;1673383;83;27454;-71
2022/08/06 08:35:30;;;;;;;10.90;5.37;;;;;;;19.02;64.26;101414.97;1681434;83;25779;-70
2022/08/06 08:37:57;;;;;;;10.70;6.20;;;;;;;19.04;63.83;101415.73;1683047;83;25811;-71
2022/08/06 08:40:25;;;;;;;10.38;5.30;;;;;;;18.96;63.44;101415.37;1681233;83;25825;-70
2022/08/06 08:42:57;;;;;;;10.60;5.80;;;;;;;19.02;63.52;101431.27;1698832;83;25798;-70
2022/08/06 08:45:24;;;;;;;10.28;6.37;;;;;;;19.03;62.36;101425.34;1685764;83;27460;-71
2022/08/06 08:47:53;;;;;;;10.30;6.08;;;;;;;18.98;62.31;101436.52;1691985;83;25842;-72
2022/08/06 08:50:22;;;;;;;11.03;5.90;;;;;;;18.94;61.93;101433.62;1680902;83;26659;-72
2022/08/06 08:52:52;;;;;;;8.50;5.37;;;;;;;18.98;62.32;101432.93;1682325;83;25748;-72
2022/08/06 08:55:25;;;;;;;9.23;5.83;;;;;;;19.09;62.06;101438.04;1681219;83;25844;-72
2022/08/06 08:57:52;;;;;;;15.72;5.83;;;;;;;19.11;61.71;101434.73;1677976;83;27527;-72
2022/08/06 09:00:22;;;;;;;11.30;5.60;;;;;;;19.11;61.97;101437.45;1683611;83;25745;-72
2022/08/06 09:02:49;;;;;;;8.50;5.83;;;;;;;19.19;61.76;101437.43;1687518;83;25755;-71
2022/08/06 09:05:17;;;;;;;7.67;4.83;;;;;;;19.16;61.61;101448.50;1683266;83;25837;-71
2022/08/06 09:07:44;;;;;;;8.83;5.62;;;;;;;19.07;60.18;101441.83;1683302;83;25831;-71
2022/08/06 09:10:10;;;;;;;6.60;5.03;;;;;;;18.82;60.78;101452.08;1683864;83;28332;-72
2022/08/06 09:12:36;;;;;;;8.53;5.30;;;;;;;18.79;60.97;101448.20;1683671;83;25872;-72
2022/08/06 09:15:03;;;;;;;9.50;5.15;;;;;;;18.84;60.93;101458.28;1681629;83;25762;-72
2022/08/06 09:17:30;;;;;;;12.23;5.25;;;;;;;18.84;60.93;101458.28;1693968;83;25932;-71
2022/08/06 09:19:56;;;;;;;11.63;5.22;;;;;;;18.79;60.75;101454.50;1690356;83;26314;-72
2022/08/06 09:22:25;;;;;;;8.43;5.30;;;;;;;18.76;60.78;101461.98;1688565;83;29807;-73
2022/08/06 09:24:51;;;;;;;8.38;5.22;;;;;;;18.78;60.94;101461.39;1653513;85;26130;-72
2022/08/06 09:27:18;;;;;;;11.10;5.25;;;;;;;18.87;60.98;101462.16;1680854;83;25993;-72
2022/08/06 09:29:56;;;;;;;7.92;5.33;;;;;;;18.97;60.93;101457.87;1686698;83;26438;-71
2022/08/06 09:32:49;;;;;;;8.88;5.40;;;;;;;19.12;60.73;101456.86;1676884;83;25800;-72
2022/08/06 09:35:22;;;;;;;10.00;4.90;;;;;;;19.20;60.32;101467.71;1686571;83;27498;-71
2022/08/06 09:37:50;;;;;;;7.85;4.85;;;;;;;19.22;60.37;101477.51;1681895;84;25820;-72
2022/08/06 09:40:19;;;;;;;6.42;4.62;;;;;;;19.30;60.06;101457.97;1678911;84;26574;-73
2022/08/06 09:42:50;;;;;;;6.90;4.28;;;;;;;19.48;59.99;101466.25;1677882;84;26345;-73
2022/08/06 09:45:20;;;;;;;8.58;4.03;;;;;;;19.62;59.51;101466.22;1676460;83;25925;-72
2022/08/06 09:47:49;;;;;;;13.18;4.83;;;;;;;19.63;58.03;101460.30;1671238;84;26850;-72
2022/08/06 09:50:19;;;;;;;11.93;3.83;;;;;;;19.54;58.24;101442.75;1676104;84;25769;-71
2022/08/06 09:53:01;;;;;;;10.63;5.00;;;;;;;19.75;57.61;101448.08;1672085;84;26539;-71
2022/08/06 09:55:32;;;;;;;5.70;4.22;;;;;;;19.98;57.53;101457.37;1676366;84;26406;-71
2022/08/06 09:57:59;;;;;;;11.33;4.83;;;;;;;20.14;57.35;101454.45;1674764;84;25800;-71
2022/08/06 10:00:34;;;;;;;11.65;4.58;;;;;;;20.37;57.19;101448.23;1676281;84;27486;-72
2022/08/06 10:03:04;;;;;;;9.25;4.33;;;;;;;20.51;57.07;101454.58;1672731;84;25964;-72
2022/08/06 10:05:31;;;;;;;9.00;4.05;;;;;;;20.66;56.67;101454.83;1670612;84;26562;-72
2022/08/06 10:08:16;;;;;;;6.37;3.83;;;;;;;20.66;56.67;101454.83;1672938;84;25823;-72
2022/08/06 10:10:48;;;;;;;5.12;4.10;;;;;;;20.73;56.38;101452.05;1677126;84;25818;-71
2022/08/06 10:13:24;;;;;;;5.78;4.05;;;;;;;20.79;56.23;101414.81;1680343;84;27561;-72
2022/08/06 10:15:54;;;;;;;12.88;5.53;;;;;;;21.13;55.95;101443.61;1677397;84;25926;-73
2022/08/06 10:18:44;;;;;;;9.43;4.20;;;;;;;21.24;55.85;101440.98;1675004;84;25712;-71
2022/08/06 10:21:15;;;;;;;10.93;4.20;;;;;;;21.34;55.65;101438.81;1673299;83;26547;-71
2022/08/06 10:23:47;;;;;;;6.65;3.80;;;;;;;21.41;55.40;101442.44;1670086;84;26322;-71
2022/08/06 10:26:18;;;;;;;5.37;4.12;;;;;;;21.44;54.78;101458.08;1676557;84;27540;-70
2022/08/06 10:28:48;;;;;;;7.12;4.92;;;;;;;21.35;53.81;101451.95;1677334;84;26196;-72
2022/08/06 10:31:15;;;;;;;7.83;3.43;;;;;;;21.23;53.26;101457.84;1677545;84;25770;-70
2022/08/06 10:34:10;;;;;;;4.10;3.35;;;;;;;21.23;53.18;101452.88;1681400;83;25760;-71
2022/08/06 10:36:49;;;;;;;4.75;3.27;;;;;;;21.26;52.70;101459.46;1700342;82;25699;-71
2022/08/06 10:39:15;;;;;;;9.33;3.50;;;;;;;21.35;52.33;101448.73;1711295;82;27453;-72
2022/08/06 10:41:44;;;;;;;4.42;2.30;;;;;;;21.36;52.42;101450.97;1705347;82;27109;-71
2022/08/06 10:44:12;;;;;;;4.42;2.02;;;;;;;21.39;51.59;101446.64;1696729;83;25708;-71
2022/08/06 10:46:38;;;;;;;3.77;2.00;;;;;;;21.22;51.66;101443.83;1711046;82;26501;-72
2022/08/06 10:49:05;;;;;;;6.78;1.82;;;;;;;21.26;51.58;101455.38;1701620;82;97730;-71
2022/08/06 10:51:33;;;;;;;18.32;3.08;;;;;;;21.22;50.75;101452.01;1723653;82;27599;-71
2022/08/06 10:53:59;;;;;;;7.15;2.08;;;;;;;20.96;49.59;101448.47;1716087;82;25715;-71
2022/08/06 10:56:28;;;;;;;3.90;2.08;;;;;;;20.90;50.38;101451.64;1727250;81;98702;-71
2022/08/06 10:58:54;;;;;;;4.50;1.80;;;;;;;21.07;50.79;101458.08;1728530;81;26735;-71
2022/08/06 11:01:40;;;;;;;1.90;1.60;;;;;;;21.23;50.10;101455.11;1722511;80;98758;-70
2022/08/06 11:04:47;;;;;;;10.68;3.60;;;;;;;21.12;48.89;101453.65;1727371;81;27454;-70
2022/08/06 11:07:40;;;;;;;4.80;2.12;;;;;;;21.16;50.01;101460.61;1716076;81;98785;-70
2022/08/06 11:10:28;;;;;;;3.72;2.00;;;;;;;21.33;49.40;101460.25;1703082;81;25914;-69
2022/08/06 11:13:08;;;;;;;3.62;2.22;;;;;;;21.35;49.47;101456.05;1722230;81;98845;-69
2022/08/06 11:15:36;;;;;;;3.17;1.77;;;;;;;21.50;49.72;101464.92;1729652;81;25799;-65
2022/08/06 11:18:09;;;;;;;3.52;1.80;;;;;;;21.67;49.06;101461.77;1723690;81;27570;-65
2022/08/06 11:20:41;;;;;;;2.50;2.30;;;;;;;21.63;48.52;101464.36;1717079;81;98476;-65
2022/08/06 11:23:15;;;;;;;3.85;2.10;;;;;;;21.52;49.08;101465.67;1725429;81;25848;-66
2022/08/06 11:25:51;;;;;;;1.87;1.77;;;;;;;21.41;48.98;101463.77;1712840;81;98797;-65
2022/08/06 11:28:34;;;;;;;2.75;2.27;;;;;;;21.54;48.98;101451.42;1705756;82;25488;-66
2022/08/06 11:31:04;;;;;;;6.12;1.82;;;;;;;21.69;48.58;101456.58;1726506;81;98895;-67
2022/08/06 11:33:38;;;;;;;7.17;2.17;;;;;;;21.91;48.51;101455.78;1724253;81;25826;-65
2022/08/06 11:36:12;;;;;;;3.15;1.75;;;;;;;21.94;47.66;101454.17;1704972;81;25882;-65
2022/08/06 11:38:59;;;;;;;1.87;1.52;;;;;;;22.03;47.75;101453.48;1693452;83;97713;-65
2022/08/06 11:41:29;;;;;;;3.27;1.45;;;;;;;22.23;47.26;101453.28;1687488;83;25806;-65
2022/08/06 11:44:05;;;;;;;2.90;1.30;;;;;;;22.24;46.82;101457.75;1688710;83;98841;-66
2022/08/06 11:46:38;;;;;;;5.87;1.22;;;;;;;22.09;46.44;101449.91;1693073;82;25745;-66
2022/08/06 11:49:14;;;;;;;2.95;1.07;;;;;;;21.89;44.29;101448.20;1687150;83;98776;-66